sensor_id;sensor_type;location;lat;lon;timestamp;temperature;humidity
42989;DHT22;28622;43.716;20.668;2023-04-06T00:01:10;3.10;99.90
42989;DHT22;28622;43.716;20.668;2023-04-06T00:03:36;3.10;99.90
42989;DHT22;28622;43.716;20.668;2023-04-06T00:06:03;3.10;99.90
42989;DHT22;28622;43.716;20.668;2023-04-06T00:08:28;3.10;99.90
42989;DHT22;28622;43.716;20.668;2023-04-06T00:10:54;3.10;99.90
42989;DHT22;28622;43.716;20.668;2023-04-06T00:13:20;3.10;99.90
42989;DHT22;28622;43.716;20.668;2023-04-06T00:15:46;3.10;99.90
42989;DHT22;28622;43.716;20.668;2023-04-06T00:18:12;3.10;99.90
42989;DHT22;28622;43.716;20.668;2023-04-06T00:20:38;3.10;99.90
42989;DHT22;28622;43.716;20.668;2023-04-06T00:23:04;3.10;99.90
42989;DHT22;28622;43.716;20.668;2023-04-06T00:25:30;3.10;99.90
42989;DHT22;28622;43.716;20.668;2023-04-06T00:27:55;3.10;99.90
42989;DHT22;28622;43.716;20.668;2023-04-06T00:30:21;3.00;99.90
42989;DHT22;28622;43.716;20.668;2023-04-06T00:32:47;3.00;99.90
42989;DHT22;28622;43.716;20.668;2023-04-06T00:35:13;3.00;99.90
42989;DHT22;28622;43.716;20.668;2023-04-06T00:37:40;3.00;99.90
42989;DHT22;28622;43.716;20.668;2023-04-06T00:40:06;2.90;99.90
42989;DHT22;28622;43.716;20.668;2023-04-06T00:42:32;2.90;99.90
42989;DHT22;28622;43.716;20.668;2023-04-06T00:44:59;2.80;99.90
42989;DHT22;28622;43.716;20.668;2023-04-06T00:47:26;2.90;99.90
42989;DHT22;28622;43.716;20.668;2023-04-06T00:49:53;2.80;99.90
42989;DHT22;28622;43.716;20.668;2023-04-06T00:52:19;2.80;99.90
42989;DHT22;28622;43.716;20.668;2023-04-06T00:54:45;2.80;99.90
42989;DHT22;28622;43.716;20.668;2023-04-06T00:57:14;2.80;99.90
42989;DHT22;28622;43.716;20.668;2023-04-06T00:59:40;2.80;99.90
42989;DHT22;28622;43.716;20.668;2023-04-06T01:02:07;2.70;99.90
42989;DHT22;28622;43.716;20.668;2023-04-06T01:04:33;2.80;99.90
42989;DHT22;28622;43.716;20.668;2023-04-06T01:07:00;2.80;99.90
42989;DHT22;28622;43.716;20.668;2023-04-06T01:09:28;2.80;99.90
42989;DHT22;28622;43.716;20.668;2023-04-06T01:11:56;2.80;99.90
42989;DHT22;28622;43.716;20.668;2023-04-06T01:14:22;2.60;99.90
42989;DHT22;28622;43.716;20.668;2023-04-06T01:16:48;2.70;99.90
42989;DHT22;28622;43.716;20.668;2023-04-06T01:19:14;2.60;99.90
42989;DHT22;28622;43.716;20.668;2023-04-06T01:21:41;2.60;99.90
42989;DHT22;28622;43.716;20.668;2023-04-06T01:24:07;2.60;99.90
42989;DHT22;28622;43.716;20.668;2023-04-06T01:26:33;2.60;99.90
42989;DHT22;28622;43.716;20.668;2023-04-06T01:29:00;2.60;99.90
42989;DHT22;28622;43.716;20.668;2023-04-06T01:31:26;2.60;99.90
42989;DHT22;28622;43.716;20.668;2023-04-06T01:33:53;2.60;99.90
42989;DHT22;28622;43.716;20.668;2023-04-06T01:36:19;2.60;99.90
42989;DHT22;28622;43.716;20.668;2023-04-06T01:38:45;2.60;99.90
42989;DHT22;28622;43.716;20.668;2023-04-06T01:41:11;2.60;99.90
42989;DHT22;28622;43.716;20.668;2023-04-06T01:43:37;2.60;99.90
42989;DHT22;28622;43.716;20.668;2023-04-06T01:46:03;2.70;99.90
42989;DHT22;28622;43.716;20.668;2023-04-06T01:48:29;2.70;99.90
42989;DHT22;28622;43.716;20.668;2023-04-06T01:50:55;2.70;99.90
42989;DHT22;28622;43.716;20.668;2023-04-06T01:53:21;2.60;99.90
42989;DHT22;28622;43.716;20.668;2023-04-06T01:55:47;2.60;99.90
42989;DHT22;28622;43.716;20.668;2023-04-06T01:58:13;2.60;99.90
42989;DHT22;28622;43.716;20.668;2023-04-06T02:00:39;2.70;99.90
42989;DHT22;28622;43.716;20.668;2023-04-06T02:03:05;2.70;99.90
42989;DHT22;28622;43.716;20.668;2023-04-06T02:05:32;2.70;99.90
42989;DHT22;28622;43.716;20.668;2023-04-06T02:08:07;2.70;99.90
42989;DHT22;28622;43.716;20.668;2023-04-06T02:10:33;2.70;99.90
42989;DHT22;28622;43.716;20.668;2023-04-06T02:13:00;2.70;99.90
42989;DHT22;28622;43.716;20.668;2023-04-06T02:15:26;2.70;99.90
42989;DHT22;28622;43.716;20.668;2023-04-06T02:17:52;2.70;99.90
42989;DHT22;28622;43.716;20.668;2023-04-06T02:20:18;2.70;99.90
42989;DHT22;28622;43.716;20.668;2023-04-06T02:22:45;2.70;99.90
42989;DHT22;28622;43.716;20.668;2023-04-06T02:25:10;2.70;99.90
42989;DHT22;28622;43.716;20.668;2023-04-06T02:27:37;2.70;99.90
42989;DHT22;28622;43.716;20.668;2023-04-06T02:30:03;2.80;99.90
42989;DHT22;28622;43.716;20.668;2023-04-06T02:32:29;2.80;99.90
42989;DHT22;28622;43.716;20.668;2023-04-06T02:34:55;2.80;99.90
42989;DHT22;28622;43.716;20.668;2023-04-06T02:37:21;2.80;99.90
42989;DHT22;28622;43.716;20.668;2023-04-06T02:39:48;2.80;99.90
42989;DHT22;28622;43.716;20.668;2023-04-06T02:42:14;2.80;99.90
42989;DHT22;28622;43.716;20.668;2023-04-06T02:44:41;2.80;99.90
42989;DHT22;28622;43.716;20.668;2023-04-06T02:47:07;2.90;99.90
42989;DHT22;28622;43.716;20.668;2023-04-06T02:49:33;2.90;99.90
42989;DHT22;28622;43.716;20.668;2023-04-06T02:52:00;2.80;99.90
42989;DHT22;28622;43.716;20.668;2023-04-06T02:54:26;2.80;99.90
42989;DHT22;28622;43.716;20.668;2023-04-06T02:56:51;2.80;99.90
42989;DHT22;28622;43.716;20.668;2023-04-06T02:59:17;2.80;99.90
42989;DHT22;28622;43.716;20.668;2023-04-06T03:01:43;2.80;99.90
42989;DHT22;28622;43.716;20.668;2023-04-06T03:04:09;2.90;99.90
42989;DHT22;28622;43.716;20.668;2023-04-06T03:06:34;2.90;99.90
42989;DHT22;28622;43.716;20.668;2023-04-06T03:09:00;2.90;99.90
42989;DHT22;28622;43.716;20.668;2023-04-06T03:11:26;3.00;99.90
42989;DHT22;28622;43.716;20.668;2023-04-06T03:13:52;3.00;99.90
42989;DHT22;28622;43.716;20.668;2023-04-06T03:16:18;3.00;99.90
42989;DHT22;28622;43.716;20.668;2023-04-06T03:18:43;3.00;99.90
42989;DHT22;28622;43.716;20.668;2023-04-06T03:21:10;3.00;99.90
42989;DHT22;28622;43.716;20.668;2023-04-06T03:23:36;3.10;99.90
42989;DHT22;28622;43.716;20.668;2023-04-06T03:26:02;3.10;99.90
42989;DHT22;28622;43.716;20.668;2023-04-06T03:28:29;3.10;99.90
42989;DHT22;28622;43.716;20.668;2023-04-06T03:30:55;3.10;99.90
42989;DHT22;28622;43.716;20.668;2023-04-06T03:33:20;3.10;99.90
42989;DHT22;28622;43.716;20.668;2023-04-06T03:35:46;3.10;99.90
42989;DHT22;28622;43.716;20.668;2023-04-06T03:38:12;3.10;99.90
42989;DHT22;28622;43.716;20.668;2023-04-06T03:40:38;3.10;99.90
42989;DHT22;28622;43.716;20.668;2023-04-06T03:43:04;3.10;99.90
42989;DHT22;28622;43.716;20.668;2023-04-06T03:45:30;3.20;99.90
42989;DHT22;28622;43.716;20.668;2023-04-06T03:47:56;3.20;99.90
42989;DHT22;28622;43.716;20.668;2023-04-06T03:50:21;3.10;99.90
42989;DHT22;28622;43.716;20.668;2023-04-06T03:52:47;3.20;99.90
42989;DHT22;28622;43.716;20.668;2023-04-06T03:55:13;3.10;99.90
42989;DHT22;28622;43.716;20.668;2023-04-06T03:57:39;3.10;99.90
42989;DHT22;28622;43.716;20.668;2023-04-06T04:00:05;3.10;99.90
42989;DHT22;28622;43.716;20.668;2023-04-06T04:02:31;3.10;99.90
42989;DHT22;28622;43.716;20.668;2023-04-06T04:04:57;3.20;99.90
42989;DHT22;28622;43.716;20.668;2023-04-06T04:07:22;3.20;99.90
42989;DHT22;28622;43.716;20.668;2023-04-06T04:09:48;3.10;99.90
42989;DHT22;28622;43.716;20.668;2023-04-06T04:12:14;3.10;99.90
42989;DHT22;28622;43.716;20.668;2023-04-06T04:14:42;3.10;99.90
42989;DHT22;28622;43.716;20.668;2023-04-06T04:17:09;3.10;99.90
42989;DHT22;28622;43.716;20.668;2023-04-06T04:19:35;3.10;99.90
42989;DHT22;28622;43.716;20.668;2023-04-06T04:22:00;3.10;99.90
42989;DHT22;28622;43.716;20.668;2023-04-06T04:24:30;3.10;99.90
42989;DHT22;28622;43.716;20.668;2023-04-06T04:26:55;3.10;99.90
42989;DHT22;28622;43.716;20.668;2023-04-06T04:29:22;3.10;99.90
42989;DHT22;28622;43.716;20.668;2023-04-06T04:31:48;3.20;99.90
42989;DHT22;28622;43.716;20.668;2023-04-06T04:34:15;3.10;99.90
42989;DHT22;28622;43.716;20.668;2023-04-06T04:36:41;3.10;99.90
42989;DHT22;28622;43.716;20.668;2023-04-06T04:39:10;3.10;99.90
42989;DHT22;28622;43.716;20.668;2023-04-06T04:41:36;3.10;99.90
42989;DHT22;28622;43.716;20.668;2023-04-06T04:44:02;3.10;99.90
42989;DHT22;28622;43.716;20.668;2023-04-06T04:46:28;3.10;99.90
42989;DHT22;28622;43.716;20.668;2023-04-06T04:48:53;3.10;99.90
42989;DHT22;28622;43.716;20.668;2023-04-06T04:51:19;3.10;99.90
42989;DHT22;28622;43.716;20.668;2023-04-06T04:53:45;3.10;99.90
42989;DHT22;28622;43.716;20.668;2023-04-06T04:56:11;3.10;99.90
42989;DHT22;28622;43.716;20.668;2023-04-06T04:58:37;3.10;99.90
42989;DHT22;28622;43.716;20.668;2023-04-06T05:01:03;3.10;99.90
42989;DHT22;28622;43.716;20.668;2023-04-06T05:03:28;3.10;99.90
42989;DHT22;28622;43.716;20.668;2023-04-06T05:05:54;3.10;99.90
42989;DHT22;28622;43.716;20.668;2023-04-06T05:08:20;3.10;99.90
42989;DHT22;28622;43.716;20.668;2023-04-06T05:10:46;3.10;99.90
42989;DHT22;28622;43.716;20.668;2023-04-06T05:13:14;3.10;99.90
42989;DHT22;28622;43.716;20.668;2023-04-06T05:15:40;3.10;99.90
42989;DHT22;28622;43.716;20.668;2023-04-06T05:18:07;3.10;99.90
42989;DHT22;28622;43.716;20.668;2023-04-06T05:20:33;3.20;99.90
42989;DHT22;28622;43.716;20.668;2023-04-06T05:22:59;3.20;99.90
42989;DHT22;28622;43.716;20.668;2023-04-06T05:25:25;3.20;99.90
42989;DHT22;28622;43.716;20.668;2023-04-06T05:27:50;3.30;99.90
42989;DHT22;28622;43.716;20.668;2023-04-06T05:30:16;3.30;99.90
42989;DHT22;28622;43.716;20.668;2023-04-06T05:32:42;3.30;99.90
42989;DHT22;28622;43.716;20.668;2023-04-06T05:35:11;3.30;99.90
42989;DHT22;28622;43.716;20.668;2023-04-06T05:37:38;3.30;99.90
42989;DHT22;28622;43.716;20.668;2023-04-06T05:40:04;3.40;99.90
42989;DHT22;28622;43.716;20.668;2023-04-06T05:42:40;3.40;99.90
42989;DHT22;28622;43.716;20.668;2023-04-06T05:45:07;3.40;99.90
42989;DHT22;28622;43.716;20.668;2023-04-06T05:47:33;3.30;99.90
42989;DHT22;28622;43.716;20.668;2023-04-06T05:49:59;3.30;99.90
42989;DHT22;28622;43.716;20.668;2023-04-06T05:52:25;3.40;99.90
42989;DHT22;28622;43.716;20.668;2023-04-06T05:54:51;3.40;99.90
42989;DHT22;28622;43.716;20.668;2023-04-06T05:57:17;3.40;99.90
42989;DHT22;28622;43.716;20.668;2023-04-06T05:59:43;3.40;99.90
42989;DHT22;28622;43.716;20.668;2023-04-06T06:02:09;3.40;99.90
42989;DHT22;28622;43.716;20.668;2023-04-06T06:04:35;3.50;99.90
42989;DHT22;28622;43.716;20.668;2023-04-06T06:07:01;3.60;99.90
42989;DHT22;28622;43.716;20.668;2023-04-06T06:09:26;3.60;99.90
42989;DHT22;28622;43.716;20.668;2023-04-06T06:11:52;3.70;99.90
42989;DHT22;28622;43.716;20.668;2023-04-06T06:14:19;3.80;99.90
42989;DHT22;28622;43.716;20.668;2023-04-06T06:16:45;3.90;99.90
42989;DHT22;28622;43.716;20.668;2023-04-06T06:19:11;4.00;99.90
42989;DHT22;28622;43.716;20.668;2023-04-06T06:21:37;4.30;99.90
42989;DHT22;28622;43.716;20.668;2023-04-06T06:24:03;4.20;99.90
42989;DHT22;28622;43.716;20.668;2023-04-06T06:26:28;4.20;99.90
42989;DHT22;28622;43.716;20.668;2023-04-06T06:28:54;4.20;99.90
42989;DHT22;28622;43.716;20.668;2023-04-06T06:31:20;4.30;99.90
42989;DHT22;28622;43.716;20.668;2023-04-06T06:33:51;4.30;99.90
42989;DHT22;28622;43.716;20.668;2023-04-06T06:36:17;4.30;99.90
42989;DHT22;28622;43.716;20.668;2023-04-06T06:38:44;4.30;99.90
42989;DHT22;28622;43.716;20.668;2023-04-06T06:41:10;4.30;99.90
42989;DHT22;28622;43.716;20.668;2023-04-06T06:43:36;4.30;99.90
42989;DHT22;28622;43.716;20.668;2023-04-06T06:46:03;4.30;99.90
42989;DHT22;28622;43.716;20.668;2023-04-06T06:48:28;4.30;99.90
42989;DHT22;28622;43.716;20.668;2023-04-06T06:50:55;4.30;99.90
42989;DHT22;28622;43.716;20.668;2023-04-06T06:53:21;4.30;99.90
42989;DHT22;28622;43.716;20.668;2023-04-06T06:55:47;4.30;99.90
42989;DHT22;28622;43.716;20.668;2023-04-06T06:58:14;4.30;99.90
42989;DHT22;28622;43.716;20.668;2023-04-06T07:00:40;4.40;99.90
42989;DHT22;28622;43.716;20.668;2023-04-06T07:03:06;4.40;99.90
42989;DHT22;28622;43.716;20.668;2023-04-06T07:05:32;4.40;99.90
42989;DHT22;28622;43.716;20.668;2023-04-06T07:07:58;4.40;99.90
42989;DHT22;28622;43.716;20.668;2023-04-06T07:10:24;4.40;99.90
42989;DHT22;28622;43.716;20.668;2023-04-06T07:12:50;4.40;99.90
42989;DHT22;28622;43.716;20.668;2023-04-06T07:15:16;4.40;99.90
42989;DHT22;28622;43.716;20.668;2023-04-06T07:17:42;4.30;99.90
42989;DHT22;28622;43.716;20.668;2023-04-06T07:20:11;4.40;99.90
42989;DHT22;28622;43.716;20.668;2023-04-06T07:22:38;4.30;99.90
42989;DHT22;28622;43.716;20.668;2023-04-06T07:25:04;4.30;99.90
42989;DHT22;28622;43.716;20.668;2023-04-06T07:27:30;4.40;99.90
42989;DHT22;28622;43.716;20.668;2023-04-06T07:29:56;4.40;99.90
42989;DHT22;28622;43.716;20.668;2023-04-06T07:32:21;4.50;99.90
42989;DHT22;28622;43.716;20.668;2023-04-06T07:34:47;4.60;99.90
42989;DHT22;28622;43.716;20.668;2023-04-06T07:37:13;4.50;99.90
42989;DHT22;28622;43.716;20.668;2023-04-06T07:39:39;4.50;99.90
42989;DHT22;28622;43.716;20.668;2023-04-06T07:42:06;4.60;99.90
42989;DHT22;28622;43.716;20.668;2023-04-06T07:44:31;4.70;99.90
42989;DHT22;28622;43.716;20.668;2023-04-06T07:46:57;4.80;99.90
42989;DHT22;28622;43.716;20.668;2023-04-06T07:49:23;4.70;99.90
42989;DHT22;28622;43.716;20.668;2023-04-06T07:51:49;4.70;99.90
42989;DHT22;28622;43.716;20.668;2023-04-06T07:54:15;4.80;99.90
42989;DHT22;28622;43.716;20.668;2023-04-06T07:56:40;4.90;99.90
42989;DHT22;28622;43.716;20.668;2023-04-06T07:59:06;4.90;99.90
42989;DHT22;28622;43.716;20.668;2023-04-06T08:01:32;4.90;99.90
42989;DHT22;28622;43.716;20.668;2023-04-06T08:03:58;5.00;99.90
42989;DHT22;28622;43.716;20.668;2023-04-06T08:06:24;5.10;99.90
42989;DHT22;28622;43.716;20.668;2023-04-06T08:08:50;5.10;99.90
42989;DHT22;28622;43.716;20.668;2023-04-06T08:11:16;5.20;99.90
42989;DHT22;28622;43.716;20.668;2023-04-06T08:13:42;5.20;99.90
42989;DHT22;28622;43.716;20.668;2023-04-06T08:16:08;5.30;99.90
42989;DHT22;28622;43.716;20.668;2023-04-06T08:18:33;5.20;99.90
42989;DHT22;28622;43.716;20.668;2023-04-06T08:20:59;5.20;99.90
42989;DHT22;28622;43.716;20.668;2023-04-06T08:23:25;5.20;99.90
42989;DHT22;28622;43.716;20.668;2023-04-06T08:25:51;5.30;99.90
42989;DHT22;28622;43.716;20.668;2023-04-06T08:28:20;5.30;99.90
42989;DHT22;28622;43.716;20.668;2023-04-06T08:30:46;5.30;99.90
42989;DHT22;28622;43.716;20.668;2023-04-06T08:33:12;5.30;99.90
42989;DHT22;28622;43.716;20.668;2023-04-06T08:35:38;5.30;99.90
42989;DHT22;28622;43.716;20.668;2023-04-06T08:38:03;5.40;99.90
42989;DHT22;28622;43.716;20.668;2023-04-06T08:40:30;5.40;99.90
42989;DHT22;28622;43.716;20.668;2023-04-06T08:42:56;5.50;99.90
42989;DHT22;28622;43.716;20.668;2023-04-06T08:45:24;5.60;99.90
42989;DHT22;28622;43.716;20.668;2023-04-06T08:47:51;5.60;99.90
42989;DHT22;28622;43.716;20.668;2023-04-06T08:50:20;5.70;99.90
42989;DHT22;28622;43.716;20.668;2023-04-06T08:52:48;5.90;99.90
42989;DHT22;28622;43.716;20.668;2023-04-06T08:55:14;5.90;99.90
42989;DHT22;28622;43.716;20.668;2023-04-06T08:57:41;6.00;99.90
42989;DHT22;28622;43.716;20.668;2023-04-06T09:00:10;6.10;99.90
42989;DHT22;28622;43.716;20.668;2023-04-06T09:02:39;6.10;99.90
42989;DHT22;28622;43.716;20.668;2023-04-06T09:05:08;6.30;99.90
42989;DHT22;28622;43.716;20.668;2023-04-06T09:07:35;6.30;99.90
42989;DHT22;28622;43.716;20.668;2023-04-06T09:10:01;6.40;99.90
42989;DHT22;28622;43.716;20.668;2023-04-06T09:12:29;6.30;99.90
42989;DHT22;28622;43.716;20.668;2023-04-06T09:14:55;6.40;99.90
42989;DHT22;28622;43.716;20.668;2023-04-06T09:17:30;6.40;99.90
42989;DHT22;28622;43.716;20.668;2023-04-06T09:19:58;6.50;99.90
42989;DHT22;28622;43.716;20.668;2023-04-06T09:22:24;6.50;99.30
42989;DHT22;28622;43.716;20.668;2023-04-06T09:24:53;6.60;99.00
42989;DHT22;28622;43.716;20.668;2023-04-06T09:27:38;6.70;99.30
42989;DHT22;28622;43.716;20.668;2023-04-06T09:30:08;6.60;99.10
42989;DHT22;28622;43.716;20.668;2023-04-06T09:33:04;6.70;98.90
42989;DHT22;28622;43.716;20.668;2023-04-06T09:35:30;6.70;98.00
42989;DHT22;28622;43.716;20.668;2023-04-06T09:37:57;6.70;98.00
42989;DHT22;28622;43.716;20.668;2023-04-06T09:40:23;6.60;98.30
42989;DHT22;28622;43.716;20.668;2023-04-06T09:42:50;6.50;98.60
42989;DHT22;28622;43.716;20.668;2023-04-06T09:45:18;6.80;98.80
42989;DHT22;28622;43.716;20.668;2023-04-06T09:47:44;7.00;98.10
42989;DHT22;28622;43.716;20.668;2023-04-06T09:50:12;6.90;97.20
42989;DHT22;28622;43.716;20.668;2023-04-06T09:52:53;7.10;97.60
42989;DHT22;28622;43.716;20.668;2023-04-06T09:55:42;7.30;96.30
42989;DHT22;28622;43.716;20.668;2023-04-06T09:58:17;7.40;96.80
42989;DHT22;28622;43.716;20.668;2023-04-06T10:00:58;7.60;96.30
42989;DHT22;28622;43.716;20.668;2023-04-06T10:03:49;7.80;96.70
42989;DHT22;28622;43.716;20.668;2023-04-06T10:06:20;7.90;97.00
42989;DHT22;28622;43.716;20.668;2023-04-06T10:08:49;8.10;96.20
42989;DHT22;28622;43.716;20.668;2023-04-06T10:11:16;8.40;94.80
42989;DHT22;28622;43.716;20.668;2023-04-06T10:13:42;8.50;95.10
42989;DHT22;28622;43.716;20.668;2023-04-06T10:16:08;8.50;94.50
42989;DHT22;28622;43.716;20.668;2023-04-06T10:18:35;8.50;93.60
42989;DHT22;28622;43.716;20.668;2023-04-06T10:21:07;8.50;94.80
42989;DHT22;28622;43.716;20.668;2023-04-06T10:23:39;8.70;93.30
42989;DHT22;28622;43.716;20.668;2023-04-06T10:26:05;8.70;93.90
42989;DHT22;28622;43.716;20.668;2023-04-06T10:28:33;8.60;93.00
42989;DHT22;28622;43.716;20.668;2023-04-06T10:31:04;8.70;92.70
42989;DHT22;28622;43.716;20.668;2023-04-06T10:33:30;8.50;93.10
42989;DHT22;28622;43.716;20.668;2023-04-06T10:35:56;8.70;93.60
42989;DHT22;28622;43.716;20.668;2023-04-06T10:38:42;8.90;93.60
42989;DHT22;28622;43.716;20.668;2023-04-06T10:41:10;9.00;92.60
42989;DHT22;28622;43.716;20.668;2023-04-06T10:43:38;9.10;93.10
42989;DHT22;28622;43.716;20.668;2023-04-06T10:46:05;9.20;92.60
42989;DHT22;28622;43.716;20.668;2023-04-06T10:48:39;9.20;93.00
42989;DHT22;28622;43.716;20.668;2023-04-06T10:51:13;9.40;92.70
42989;DHT22;28622;43.716;20.668;2023-04-06T10:53:44;9.60;91.90
42989;DHT22;28622;43.716;20.668;2023-04-06T10:56:13;9.60;91.10
42989;DHT22;28622;43.716;20.668;2023-04-06T10:58:47;9.70;91.00
42989;DHT22;28622;43.716;20.668;2023-04-06T11:01:19;9.80;91.60
42989;DHT22;28622;43.716;20.668;2023-04-06T11:03:49;9.60;92.80
42989;DHT22;28622;43.716;20.668;2023-04-06T11:08:45;9.90;90.50
42989;DHT22;28622;43.716;20.668;2023-04-06T11:11:13;9.90;91.30
42989;DHT22;28622;43.716;20.668;2023-04-06T11:13:52;10.10;90.40
42989;DHT22;28622;43.716;20.668;2023-04-06T11:16:31;10.30;90.40
42989;DHT22;28622;43.716;20.668;2023-04-06T11:21:39;10.70;90.80
42989;DHT22;28622;43.716;20.668;2023-04-06T11:24:10;11.10;90.30
42989;DHT22;28622;43.716;20.668;2023-04-06T11:26:44;11.20;89.40
42989;DHT22;28622;43.716;20.668;2023-04-06T11:29:18;10.70;87.30
42989;DHT22;28622;43.716;20.668;2023-04-06T11:31:49;10.60;86.50
42989;DHT22;28622;43.716;20.668;2023-04-06T11:34:20;10.60;87.60
42989;DHT22;28622;43.716;20.668;2023-04-06T11:36:47;10.50;86.50
42989;DHT22;28622;43.716;20.668;2023-04-06T11:39:21;10.80;88.40
42989;DHT22;28622;43.716;20.668;2023-04-06T11:41:54;11.00;86.40
42989;DHT22;28622;43.716;20.668;2023-04-06T11:44:40;11.10;85.40
42989;DHT22;28622;43.716;20.668;2023-04-06T11:47:10;10.70;86.20
42989;DHT22;28622;43.716;20.668;2023-04-06T11:49:40;11.10;86.70
42989;DHT22;28622;43.716;20.668;2023-04-06T11:54:42;11.10;86.00
42989;DHT22;28622;43.716;20.668;2023-04-06T11:57:08;12.00;84.90
42989;DHT22;28622;43.716;20.668;2023-04-06T12:02:04;12.80;84.20
42989;DHT22;28622;43.716;20.668;2023-04-06T12:06:57;13.60;79.20
42989;DHT22;28622;43.716;20.668;2023-04-06T12:11:48;13.80;78.80
42989;DHT22;28622;43.716;20.668;2023-04-06T12:14:14;12.60;77.30
42989;DHT22;28622;43.716;20.668;2023-04-06T12:16:40;11.70;99.90
42989;DHT22;28622;43.716;20.668;2023-04-06T12:19:07;11.00;81.30
42989;DHT22;28622;43.716;20.668;2023-04-06T12:21:34;10.90;81.30
42989;DHT22;28622;43.716;20.668;2023-04-06T12:24:02;10.60;81.70
42989;DHT22;28622;43.716;20.668;2023-04-06T12:26:29;10.50;84.10
42989;DHT22;28622;43.716;20.668;2023-04-06T12:28:55;10.40;84.80
42989;DHT22;28622;43.716;20.668;2023-04-06T12:31:21;10.40;85.50
42989;DHT22;28622;43.716;20.668;2023-04-06T12:33:49;10.50;87.00
42989;DHT22;28622;43.716;20.668;2023-04-06T12:36:17;10.50;85.40
42989;DHT22;28622;43.716;20.668;2023-04-06T12:38:50;10.60;83.80
42989;DHT22;28622;43.716;20.668;2023-04-06T12:41:17;10.60;84.30
42989;DHT22;28622;43.716;20.668;2023-04-06T12:43:44;10.60;84.40
42989;DHT22;28622;43.716;20.668;2023-04-06T12:46:11;10.40;86.00
42989;DHT22;28622;43.716;20.668;2023-04-06T12:48:38;10.50;83.80
42989;DHT22;28622;43.716;20.668;2023-04-06T12:51:07;10.50;83.80
42989;DHT22;28622;43.716;20.668;2023-04-06T12:53:34;10.50;84.60
42989;DHT22;28622;43.716;20.668;2023-04-06T12:56:00;10.50;85.00
42989;DHT22;28622;43.716;20.668;2023-04-06T12:58:27;10.40;84.00
42989;DHT22;28622;43.716;20.668;2023-04-06T13:00:54;10.30;82.90
42989;DHT22;28622;43.716;20.668;2023-04-06T13:03:21;10.20;82.80
42989;DHT22;28622;43.716;20.668;2023-04-06T13:05:48;10.10;84.00
42989;DHT22;28622;43.716;20.668;2023-04-06T13:08:15;10.10;84.30
42989;DHT22;28622;43.716;20.668;2023-04-06T13:10:47;10.00;85.10
42989;DHT22;28622;43.716;20.668;2023-04-06T13:13:17;10.00;85.60
42989;DHT22;28622;43.716;20.668;2023-04-06T13:15:43;9.80;84.30
42989;DHT22;28622;43.716;20.668;2023-04-06T13:18:10;9.60;87.60
42989;DHT22;28622;43.716;20.668;2023-04-06T13:20:36;9.50;85.30
42989;DHT22;28622;43.716;20.668;2023-04-06T13:23:02;9.40;87.20
42989;DHT22;28622;43.716;20.668;2023-04-06T13:25:29;9.30;86.80
42989;DHT22;28622;43.716;20.668;2023-04-06T13:27:55;9.30;87.50
42989;DHT22;28622;43.716;20.668;2023-04-06T13:30:21;9.20;86.40
42989;DHT22;28622;43.716;20.668;2023-04-06T13:32:47;9.30;88.50
42989;DHT22;28622;43.716;20.668;2023-04-06T13:35:13;9.30;88.70
42989;DHT22;28622;43.716;20.668;2023-04-06T13:37:39;9.40;88.70
42989;DHT22;28622;43.716;20.668;2023-04-06T13:40:05;9.30;86.50
42989;DHT22;28622;43.716;20.668;2023-04-06T13:42:31;9.20;85.00
42989;DHT22;28622;43.716;20.668;2023-04-06T13:44:58;9.00;85.90
42989;DHT22;28622;43.716;20.668;2023-04-06T13:47:24;8.90;86.30
42989;DHT22;28622;43.716;20.668;2023-04-06T13:49:50;8.80;87.50
42989;DHT22;28622;43.716;20.668;2023-04-06T13:52:20;8.80;88.20
42989;DHT22;28622;43.716;20.668;2023-04-06T13:54:46;8.80;86.40
42989;DHT22;28622;43.716;20.668;2023-04-06T13:57:12;8.80;87.10
42989;DHT22;28622;43.716;20.668;2023-04-06T13:59:38;8.80;87.80
42989;DHT22;28622;43.716;20.668;2023-04-06T14:02:07;8.80;88.30
42989;DHT22;28622;43.716;20.668;2023-04-06T14:04:34;8.90;88.40
42989;DHT22;28622;43.716;20.668;2023-04-06T14:07:01;9.10;88.30
42989;DHT22;28622;43.716;20.668;2023-04-06T14:09:27;9.50;87.20
42989;DHT22;28622;43.716;20.668;2023-04-06T14:11:54;9.40;87.80
42989;DHT22;28622;43.716;20.668;2023-04-06T14:14:20;9.50;87.00
42989;DHT22;28622;43.716;20.668;2023-04-06T14:16:46;9.60;86.40
42989;DHT22;28622;43.716;20.668;2023-04-06T14:19:14;9.60;86.00
42989;DHT22;28622;43.716;20.668;2023-04-06T14:21:41;9.50;82.20
42989;DHT22;28622;43.716;20.668;2023-04-06T14:24:09;9.50;84.10
42989;DHT22;28622;43.716;20.668;2023-04-06T14:26:35;9.50;85.60
42989;DHT22;28622;43.716;20.668;2023-04-06T14:29:02;9.50;84.40
42989;DHT22;28622;43.716;20.668;2023-04-06T14:31:28;9.40;84.10
42989;DHT22;28622;43.716;20.668;2023-04-06T14:33:54;9.20;85.30
42989;DHT22;28622;43.716;20.668;2023-04-06T14:36:20;9.10;85.10
42989;DHT22;28622;43.716;20.668;2023-04-06T14:38:45;9.00;85.80
42989;DHT22;28622;43.716;20.668;2023-04-06T14:41:18;9.00;86.50
42989;DHT22;28622;43.716;20.668;2023-04-06T14:43:46;8.90;85.70
42989;DHT22;28622;43.716;20.668;2023-04-06T14:46:11;8.90;85.60
42989;DHT22;28622;43.716;20.668;2023-04-06T14:48:37;8.90;86.60
42989;DHT22;28622;43.716;20.668;2023-04-06T14:51:03;8.90;86.10
42989;DHT22;28622;43.716;20.668;2023-04-06T14:53:29;8.80;85.80
42989;DHT22;28622;43.716;20.668;2023-04-06T14:55:55;8.70;85.90
42989;DHT22;28622;43.716;20.668;2023-04-06T14:58:22;8.80;86.20
42989;DHT22;28622;43.716;20.668;2023-04-06T15:00:48;8.90;87.60
42989;DHT22;28622;43.716;20.668;2023-04-06T15:03:15;8.90;84.20
42989;DHT22;28622;43.716;20.668;2023-04-06T15:05:41;9.00;86.30
42989;DHT22;28622;43.716;20.668;2023-04-06T15:08:07;9.10;86.00
42989;DHT22;28622;43.716;20.668;2023-04-06T15:10:39;9.10;87.20
42989;DHT22;28622;43.716;20.668;2023-04-06T15:13:05;9.10;87.00
42989;DHT22;28622;43.716;20.668;2023-04-06T15:15:30;9.10;86.20
42989;DHT22;28622;43.716;20.668;2023-04-06T15:17:56;9.10;84.70
42989;DHT22;28622;43.716;20.668;2023-04-06T15:20:22;9.10;84.10
42989;DHT22;28622;43.716;20.668;2023-04-06T15:22:48;9.10;84.50
42989;DHT22;28622;43.716;20.668;2023-04-06T15:25:14;9.10;85.70
42989;DHT22;28622;43.716;20.668;2023-04-06T15:27:40;9.10;85.00
42989;DHT22;28622;43.716;20.668;2023-04-06T15:30:06;9.00;84.80
42989;DHT22;28622;43.716;20.668;2023-04-06T15:32:32;9.30;84.70
42989;DHT22;28622;43.716;20.668;2023-04-06T15:34:58;9.60;84.50
42989;DHT22;28622;43.716;20.668;2023-04-06T15:37:25;9.80;84.60
42989;DHT22;28622;43.716;20.668;2023-04-06T15:39:51;10.00;83.80
42989;DHT22;28622;43.716;20.668;2023-04-06T15:42:17;9.90;82.50
42989;DHT22;28622;43.716;20.668;2023-04-06T15:44:43;9.80;83.40